sensor_id;sensor_type;location;lat;lon;timestamp;P1;durP1;ratioP1;P2;durP2;ratioP2
61709;SDS011;73500;51.494;5.386;2024-01-06T00:00:41;4.37;;;2.50;;
61709;SDS011;73500;51.494;5.386;2024-01-06T00:03:07;3.88;;;2.00;;
61709;SDS011;73500;51.494;5.386;2024-01-06T00:05:32;4.45;;;2.47;;
61709;SDS011;73500;51.494;5.386;2024-01-06T00:07:57;5.20;;;2.33;;
61709;SDS011;73500;51.494;5.386;2024-01-06T00:10:22;4.77;;;2.27;;
61709;SDS011;73500;51.494;5.386;2024-01-06T00:12:48;4.68;;;2.20;;
61709;SDS011;73500;51.494;5.386;2024-01-06T00:15:13;4.25;;;2.20;;
61709;SDS011;73500;51.494;5.386;2024-01-06T00:17:39;3.85;;;2.10;;
61709;SDS011;73500;51.494;5.386;2024-01-06T00:20:04;4.63;;;2.25;;
61709;SDS011;73500;51.494;5.386;2024-01-06T00:22:30;3.78;;;2.03;;
61709;SDS011;73500;51.494;5.386;2024-01-06T00:24:56;4.40;;;2.25;;
61709;SDS011;73500;51.494;5.386;2024-01-06T00:27:21;3.50;;;1.90;;
61709;SDS011;73500;51.494;5.386;2024-01-06T00:29:46;3.47;;;2.00;;
61709;SDS011;73500;51.494;5.386;2024-01-06T00:32:12;3.35;;;2.05;;
61709;SDS011;73500;51.494;5.386;2024-01-06T00:34:37;4.35;;;2.30;;
61709;SDS011;73500;51.494;5.386;2024-01-06T00:37:03;3.83;;;2.40;;
61709;SDS011;73500;51.494;5.386;2024-01-06T00:39:28;3.85;;;2.33;;
61709;SDS011;73500;51.494;5.386;2024-01-06T00:41:54;3.75;;;2.20;;
61709;SDS011;73500;51.494;5.386;2024-01-06T00:44:19;4.25;;;2.60;;
61709;SDS011;73500;51.494;5.386;2024-01-06T00:46:44;4.38;;;2.53;;
61709;SDS011;73500;51.494;5.386;2024-01-06T00:49:10;3.95;;;2.22;;
61709;SDS011;73500;51.494;5.386;2024-01-06T00:51:35;4.25;;;2.42;;
61709;SDS011;73500;51.494;5.386;2024-01-06T00:54:00;4.57;;;2.75;;
61709;SDS011;73500;51.494;5.386;2024-01-06T00:56:26;4.00;;;2.60;;
61709;SDS011;73500;51.494;5.386;2024-01-06T00:58:52;4.55;;;2.47;;
61709;SDS011;73500;51.494;5.386;2024-01-06T01:01:18;4.38;;;2.40;;
61709;SDS011;73500;51.494;5.386;2024-01-06T01:03:43;4.18;;;2.50;;
61709;SDS011;73500;51.494;5.386;2024-01-06T01:06:08;4.43;;;2.70;;
61709;SDS011;73500;51.494;5.386;2024-01-06T01:08:34;4.28;;;2.53;;
61709;SDS011;73500;51.494;5.386;2024-01-06T01:10:59;4.18;;;2.47;;
61709;SDS011;73500;51.494;5.386;2024-01-06T01:13:24;4.30;;;2.63;;
61709;SDS011;73500;51.494;5.386;2024-01-06T01:15:49;4.35;;;2.50;;
61709;SDS011;73500;51.494;5.386;2024-01-06T01:18:15;4.32;;;2.45;;
61709;SDS011;73500;51.494;5.386;2024-01-06T01:20:40;4.97;;;2.80;;
61709;SDS011;73500;51.494;5.386;2024-01-06T01:23:08;3.92;;;2.25;;
61709;SDS011;73500;51.494;5.386;2024-01-06T01:25:33;5.00;;;2.80;;
61709;SDS011;73500;51.494;5.386;2024-01-06T01:27:58;4.78;;;2.80;;
61709;SDS011;73500;51.494;5.386;2024-01-06T01:30:24;4.47;;;2.70;;
61709;SDS011;73500;51.494;5.386;2024-01-06T01:32:49;4.22;;;2.63;;
61709;SDS011;73500;51.494;5.386;2024-01-06T01:35:15;4.32;;;2.30;;
61709;SDS011;73500;51.494;5.386;2024-01-06T01:37:40;4.05;;;2.63;;
61709;SDS011;73500;51.494;5.386;2024-01-06T01:40:06;3.78;;;2.40;;
61709;SDS011;73500;51.494;5.386;2024-01-06T01:42:32;4.05;;;2.53;;
61709;SDS011;73500;51.494;5.386;2024-01-06T01:44:58;4.57;;;3.08;;
61709;SDS011;73500;51.494;5.386;2024-01-06T01:47:23;4.37;;;2.40;;
61709;SDS011;73500;51.494;5.386;2024-01-06T01:49:49;4.40;;;2.60;;
61709;SDS011;73500;51.494;5.386;2024-01-06T01:52:14;4.32;;;2.75;;
61709;SDS011;73500;51.494;5.386;2024-01-06T01:54:40;4.13;;;2.30;;
61709;SDS011;73500;51.494;5.386;2024-01-06T01:57:08;4.38;;;2.58;;
61709;SDS011;73500;51.494;5.386;2024-01-06T01:59:35;4.15;;;2.47;;
61709;SDS011;73500;51.494;5.386;2024-01-06T02:02:01;4.40;;;2.40;;
61709;SDS011;73500;51.494;5.386;2024-01-06T02:04:27;5.47;;;2.30;;
61709;SDS011;73500;51.494;5.386;2024-01-06T02:06:52;4.70;;;2.30;;
61709;SDS011;73500;51.494;5.386;2024-01-06T02:09:17;4.40;;;2.50;;
61709;SDS011;73500;51.494;5.386;2024-01-06T02:11:43;4.30;;;2.50;;
61709;SDS011;73500;51.494;5.386;2024-01-06T02:14:08;4.30;;;2.63;;
61709;SDS011;73500;51.494;5.386;2024-01-06T02:16:33;5.05;;;2.60;;
61709;SDS011;73500;51.494;5.386;2024-01-06T02:18:59;4.30;;;2.67;;
61709;SDS011;73500;51.494;5.386;2024-01-06T02:21:24;4.00;;;2.30;;
61709;SDS011;73500;51.494;5.386;2024-01-06T02:23:53;3.88;;;2.17;;
61709;SDS011;73500;51.494;5.386;2024-01-06T02:26:19;3.67;;;2.00;;
61709;SDS011;73500;51.494;5.386;2024-01-06T02:28:44;3.95;;;2.30;;
61709;SDS011;73500;51.494;5.386;2024-01-06T02:31:14;3.25;;;1.70;;
61709;SDS011;73500;51.494;5.386;2024-01-06T02:33:39;3.90;;;2.00;;
61709;SDS011;73500;51.494;5.386;2024-01-06T02:36:04;3.50;;;1.90;;
61709;SDS011;73500;51.494;5.386;2024-01-06T02:38:30;4.38;;;2.10;;
61709;SDS011;73500;51.494;5.386;2024-01-06T02:40:55;3.80;;;1.80;;
61709;SDS011;73500;51.494;5.386;2024-01-06T02:43:20;3.08;;;1.73;;
61709;SDS011;73500;51.494;5.386;2024-01-06T02:45:47;3.60;;;1.80;;
61709;SDS011;73500;51.494;5.386;2024-01-06T02:48:12;2.97;;;1.60;;
61709;SDS011;73500;51.494;5.386;2024-01-06T02:50:37;3.85;;;1.60;;
61709;SDS011;73500;51.494;5.386;2024-01-06T02:53:02;2.77;;;1.53;;
61709;SDS011;73500;51.494;5.386;2024-01-06T02:55:28;3.42;;;1.75;;
61709;SDS011;73500;51.494;5.386;2024-01-06T02:57:53;2.58;;;1.50;;
61709;SDS011;73500;51.494;5.386;2024-01-06T03:00:18;2.92;;;1.52;;
61709;SDS011;73500;51.494;5.386;2024-01-06T03:02:44;3.70;;;1.70;;
61709;SDS011;73500;51.494;5.386;2024-01-06T03:05:09;2.47;;;1.42;;
61709;SDS011;73500;51.494;5.386;2024-01-06T03:07:35;3.60;;;1.75;;
61709;SDS011;73500;51.494;5.386;2024-01-06T03:10:00;2.47;;;1.38;;
61709;SDS011;73500;51.494;5.386;2024-01-06T03:12:26;2.88;;;1.50;;
61709;SDS011;73500;51.494;5.386;2024-01-06T03:14:51;2.72;;;1.42;;
61709;SDS011;73500;51.494;5.386;2024-01-06T03:17:17;3.50;;;1.70;;
61709;SDS011;73500;51.494;5.386;2024-01-06T03:19:43;3.08;;;1.70;;
61709;SDS011;73500;51.494;5.386;2024-01-06T03:22:09;3.15;;;1.60;;
61709;SDS011;73500;51.494;5.386;2024-01-06T03:24:34;3.30;;;1.50;;
61709;SDS011;73500;51.494;5.386;2024-01-06T03:26:59;3.43;;;1.60;;
61709;SDS011;73500;51.494;5.386;2024-01-06T03:29:25;2.78;;;1.40;;
61709;SDS011;73500;51.494;5.386;2024-01-06T03:31:50;2.60;;;1.40;;
61709;SDS011;73500;51.494;5.386;2024-01-06T03:34:15;2.83;;;1.33;;
61709;SDS011;73500;51.494;5.386;2024-01-06T03:36:41;2.60;;;1.30;;
61709;SDS011;73500;51.494;5.386;2024-01-06T03:39:06;2.55;;;1.30;;
61709;SDS011;73500;51.494;5.386;2024-01-06T03:41:32;3.05;;;1.45;;
61709;SDS011;73500;51.494;5.386;2024-01-06T03:43:58;2.50;;;1.38;;
61709;SDS011;73500;51.494;5.386;2024-01-06T03:46:24;2.83;;;1.35;;
61709;SDS011;73500;51.494;5.386;2024-01-06T03:48:49;2.28;;;1.20;;
61709;SDS011;73500;51.494;5.386;2024-01-06T03:51:14;2.75;;;1.20;;
61709;SDS011;73500;51.494;5.386;2024-01-06T03:53:40;2.70;;;1.38;;
61709;SDS011;73500;51.494;5.386;2024-01-06T03:56:05;1.80;;;1.05;;
61709;SDS011;73500;51.494;5.386;2024-01-06T03:58:31;2.22;;;1.30;;
61709;SDS011;73500;51.494;5.386;2024-01-06T04:00:56;2.28;;;1.25;;
61709;SDS011;73500;51.494;5.386;2024-01-06T04:03:22;2.10;;;1.10;;
61709;SDS011;73500;51.494;5.386;2024-01-06T04:05:47;1.85;;;1.10;;
61709;SDS011;73500;51.494;5.386;2024-01-06T04:08:12;2.10;;;1.20;;
61709;SDS011;73500;51.494;5.386;2024-01-06T04:10:37;2.13;;;1.20;;
61709;SDS011;73500;51.494;5.386;2024-01-06T04:13:03;2.05;;;1.00;;
61709;SDS011;73500;51.494;5.386;2024-01-06T04:15:28;2.08;;;1.08;;
61709;SDS011;73500;51.494;5.386;2024-01-06T04:17:54;2.90;;;1.17;;
61709;SDS011;73500;51.494;5.386;2024-01-06T04:20:19;2.03;;;1.10;;
61709;SDS011;73500;51.494;5.386;2024-01-06T04:22:44;2.30;;;1.20;;
61709;SDS011;73500;51.494;5.386;2024-01-06T04:25:10;1.90;;;1.00;;
61709;SDS011;73500;51.494;5.386;2024-01-06T04:27:35;2.05;;;1.10;;
61709;SDS011;73500;51.494;5.386;2024-01-06T04:30:01;1.35;;;0.90;;
61709;SDS011;73500;51.494;5.386;2024-01-06T04:32:27;1.92;;;0.98;;
61709;SDS011;73500;51.494;5.386;2024-01-06T04:34:52;3.17;;;1.30;;
61709;SDS011;73500;51.494;5.386;2024-01-06T04:37:17;1.93;;;0.80;;
61709;SDS011;73500;51.494;5.386;2024-01-06T04:39:42;2.88;;;0.98;;
61709;SDS011;73500;51.494;5.386;2024-01-06T04:42:08;1.40;;;0.90;;
61709;SDS011;73500;51.494;5.386;2024-01-06T04:44:33;2.00;;;0.80;;
61709;SDS011;73500;51.494;5.386;2024-01-06T04:46:58;1.30;;;0.82;;
61709;SDS011;73500;51.494;5.386;2024-01-06T04:49:23;1.73;;;0.90;;
61709;SDS011;73500;51.494;5.386;2024-01-06T04:51:49;2.23;;;1.00;;
61709;SDS011;73500;51.494;5.386;2024-01-06T04:54:14;1.75;;;1.00;;
61709;SDS011;73500;51.494;5.386;2024-01-06T04:56:39;2.03;;;0.90;;
61709;SDS011;73500;51.494;5.386;2024-01-06T04:59:05;1.80;;;1.00;;
61709;SDS011;73500;51.494;5.386;2024-01-06T05:01:30;1.40;;;0.70;;
61709;SDS011;73500;51.494;5.386;2024-01-06T05:03:56;2.38;;;0.90;;
61709;SDS011;73500;51.494;5.386;2024-01-06T05:06:21;1.75;;;0.90;;
61709;SDS011;73500;51.494;5.386;2024-01-06T05:08:48;1.40;;;0.77;;
61709;SDS011;73500;51.494;5.386;2024-01-06T05:11:13;1.33;;;0.82;;
61709;SDS011;73500;51.494;5.386;2024-01-06T05:13:38;1.92;;;0.90;;
61709;SDS011;73500;51.494;5.386;2024-01-06T05:16:04;1.52;;;1.00;;
61709;SDS011;73500;51.494;5.386;2024-01-06T05:18:29;1.83;;;0.90;;
61709;SDS011;73500;51.494;5.386;2024-01-06T05:20:55;1.45;;;0.82;;
61709;SDS011;73500;51.494;5.386;2024-01-06T05:23:20;1.60;;;0.80;;
61709;SDS011;73500;51.494;5.386;2024-01-06T05:25:46;1.17;;;0.60;;
61709;SDS011;73500;51.494;5.386;2024-01-06T05:28:11;1.95;;;0.80;;
61709;SDS011;73500;51.494;5.386;2024-01-06T05:30:36;1.08;;;0.70;;
61709;SDS011;73500;51.494;5.386;2024-01-06T05:33:01;2.33;;;0.70;;
61709;SDS011;73500;51.494;5.386;2024-01-06T05:35:28;1.40;;;0.70;;
61709;SDS011;73500;51.494;5.386;2024-01-06T05:37:53;1.27;;;0.80;;
61709;SDS011;73500;51.494;5.386;2024-01-06T05:40:19;1.60;;;0.70;;
61709;SDS011;73500;51.494;5.386;2024-01-06T05:42:44;1.47;;;0.60;;
61709;SDS011;73500;51.494;5.386;2024-01-06T05:45:12;1.37;;;0.70;;
61709;SDS011;73500;51.494;5.386;2024-01-06T05:47:38;1.83;;;0.80;;
61709;SDS011;73500;51.494;5.386;2024-01-06T05:50:03;1.42;;;0.80;;
61709;SDS011;73500;51.494;5.386;2024-01-06T05:52:29;1.83;;;0.80;;
61709;SDS011;73500;51.494;5.386;2024-01-06T05:54:54;2.00;;;0.90;;
61709;SDS011;73500;51.494;5.386;2024-01-06T05:57:20;1.70;;;0.80;;
61709;SDS011;73500;51.494;5.386;2024-01-06T05:59:45;1.33;;;0.70;;
61709;SDS011;73500;51.494;5.386;2024-01-06T06:02:11;1.58;;;0.60;;
61709;SDS011;73500;51.494;5.386;2024-01-06T06:04:36;1.33;;;0.70;;
61709;SDS011;73500;51.494;5.386;2024-01-06T06:07:01;1.43;;;0.80;;
61709;SDS011;73500;51.494;5.386;2024-01-06T06:09:27;1.05;;;0.60;;
61709;SDS011;73500;51.494;5.386;2024-01-06T06:11:53;1.70;;;0.73;;
61709;SDS011;73500;51.494;5.386;2024-01-06T06:14:19;0.65;;;0.47;;
61709;SDS011;73500;51.494;5.386;2024-01-06T06:16:44;1.25;;;0.60;;
61709;SDS011;73500;51.494;5.386;2024-01-06T06:19:09;1.25;;;0.50;;
61709;SDS011;73500;51.494;5.386;2024-01-06T06:21:35;0.60;;;0.50;;
61709;SDS011;73500;51.494;5.386;2024-01-06T06:24:00;0.70;;;0.50;;
61709;SDS011;73500;51.494;5.386;2024-01-06T06:26:25;1.03;;;0.60;;
61709;SDS011;73500;51.494;5.386;2024-01-06T06:28:52;0.90;;;0.50;;
61709;SDS011;73500;51.494;5.386;2024-01-06T06:31:18;0.70;;;0.50;;
61709;SDS011;73500;51.494;5.386;2024-01-06T06:33:43;1.67;;;0.57;;
61709;SDS011;73500;51.494;5.386;2024-01-06T06:36:08;0.68;;;0.45;;
61709;SDS011;73500;51.494;5.386;2024-01-06T06:38:33;0.73;;;0.50;;
61709;SDS011;73500;51.494;5.386;2024-01-06T06:40:59;1.17;;;0.63;;
61709;SDS011;73500;51.494;5.386;2024-01-06T06:43:24;0.82;;;0.50;;
61709;SDS011;73500;51.494;5.386;2024-01-06T06:45:49;1.02;;;0.50;;
61709;SDS011;73500;51.494;5.386;2024-01-06T06:48:15;1.42;;;0.50;;
61709;SDS011;73500;51.494;5.386;2024-01-06T06:50:40;0.47;;;0.45;;
61709;SDS011;73500;51.494;5.386;2024-01-06T06:53:06;1.13;;;0.50;;
61709;SDS011;73500;51.494;5.386;2024-01-06T06:55:32;1.27;;;0.55;;
61709;SDS011;73500;51.494;5.386;2024-01-06T06:57:57;0.85;;;0.55;;
61709;SDS011;73500;51.494;5.386;2024-01-06T07:00:22;1.23;;;0.55;;
61709;SDS011;73500;51.494;5.386;2024-01-06T07:02:48;2.72;;;0.50;;
61709;SDS011;73500;51.494;5.386;2024-01-06T07:05:13;0.80;;;0.57;;
61709;SDS011;73500;51.494;5.386;2024-01-06T07:07:39;0.93;;;0.52;;
61709;SDS011;73500;51.494;5.386;2024-01-06T07:10:04;1.70;;;0.60;;
61709;SDS011;73500;51.494;5.386;2024-01-06T07:12:31;1.02;;;0.50;;
61709;SDS011;73500;51.494;5.386;2024-01-06T07:14:56;0.65;;;0.50;;
61709;SDS011;73500;51.494;5.386;2024-01-06T07:17:23;0.90;;;0.40;;
61709;SDS011;73500;51.494;5.386;2024-01-06T07:19:49;0.43;;;0.40;;
61709;SDS011;73500;51.494;5.386;2024-01-06T07:22:14;1.23;;;0.65;;
61709;SDS011;73500;51.494;5.386;2024-01-06T07:24:41;1.70;;;0.60;;
61709;SDS011;73500;51.494;5.386;2024-01-06T07:27:07;1.65;;;0.68;;
61709;SDS011;73500;51.494;5.386;2024-01-06T07:29:32;0.93;;;0.60;;
61709;SDS011;73500;51.494;5.386;2024-01-06T07:31:57;1.20;;;0.70;;
61709;SDS011;73500;51.494;5.386;2024-01-06T07:34:22;4.32;;;0.93;;
61709;SDS011;73500;51.494;5.386;2024-01-06T07:36:48;1.30;;;0.70;;
61709;SDS011;73500;51.494;5.386;2024-01-06T07:39:13;2.53;;;0.85;;
61709;SDS011;73500;51.494;5.386;2024-01-06T07:41:39;1.98;;;0.70;;
61709;SDS011;73500;51.494;5.386;2024-01-06T07:44:04;1.75;;;0.80;;
61709;SDS011;73500;51.494;5.386;2024-01-06T07:46:29;1.17;;;0.55;;
61709;SDS011;73500;51.494;5.386;2024-01-06T07:48:56;4.15;;;0.80;;
61709;SDS011;73500;51.494;5.386;2024-01-06T07:51:21;2.38;;;0.73;;
61709;SDS011;73500;51.494;5.386;2024-01-06T07:53:46;1.93;;;0.70;;
61709;SDS011;73500;51.494;5.386;2024-01-06T07:56:12;2.00;;;0.88;;
61709;SDS011;73500;51.494;5.386;2024-01-06T07:58:37;2.38;;;0.90;;
61709;SDS011;73500;51.494;5.386;2024-01-06T08:01:02;2.20;;;0.90;;
61709;SDS011;73500;51.494;5.386;2024-01-06T08:03:28;2.00;;;0.82;;
61709;SDS011;73500;51.494;5.386;2024-01-06T08:05:53;3.13;;;1.10;;
61709;SDS011;73500;51.494;5.386;2024-01-06T08:08:19;2.17;;;0.80;;
61709;SDS011;73500;51.494;5.386;2024-01-06T08:10:44;1.92;;;0.90;;
61709;SDS011;73500;51.494;5.386;2024-01-06T08:13:10;3.03;;;1.00;;
61709;SDS011;73500;51.494;5.386;2024-01-06T08:15:35;3.50;;;0.80;;
61709;SDS011;73500;51.494;5.386;2024-01-06T08:21:31;4.72;;;1.40;;
61709;SDS011;73500;51.494;5.386;2024-01-06T08:23:56;8.48;;;1.88;;
61709;SDS011;73500;51.494;5.386;2024-01-06T08:26:22;6.60;;;1.70;;
61709;SDS011;73500;51.494;5.386;2024-01-06T08:28:47;6.18;;;1.60;;
61709;SDS011;73500;51.494;5.386;2024-01-06T08:31:12;8.15;;;2.00;;
61709;SDS011;73500;51.494;5.386;2024-01-06T08:33:38;5.18;;;1.77;;
61709;SDS011;73500;51.494;5.386;2024-01-06T08:36:03;4.70;;;1.77;;
61709;SDS011;73500;51.494;5.386;2024-01-06T08:38:29;5.03;;;1.50;;
61709;SDS011;73500;51.494;5.386;2024-01-06T08:40:55;4.80;;;1.95;;
61709;SDS011;73500;51.494;5.386;2024-01-06T08:43:23;6.20;;;1.70;;
61709;SDS011;73500;51.494;5.386;2024-01-06T08:45:48;4.22;;;1.60;;
61709;SDS011;73500;51.494;5.386;2024-01-06T08:48:15;4.43;;;1.63;;
61709;SDS011;73500;51.494;5.386;2024-01-06T08:50:41;4.72;;;1.90;;
61709;SDS011;73500;51.494;5.386;2024-01-06T08:53:06;5.32;;;1.77;;
61709;SDS011;73500;51.494;5.386;2024-01-06T08:55:31;6.93;;;1.65;;
61709;SDS011;73500;51.494;5.386;2024-01-06T08:57:57;4.90;;;1.55;;
61709;SDS011;73500;51.494;5.386;2024-01-06T09:00:22;5.80;;;1.77;;
61709;SDS011;73500;51.494;5.386;2024-01-06T09:02:47;5.55;;;1.48;;
61709;SDS011;73500;51.494;5.386;2024-01-06T09:05:13;4.03;;;1.42;;
61709;SDS011;73500;51.494;5.386;2024-01-06T09:07:39;5.25;;;1.63;;
61709;SDS011;73500;51.494;5.386;2024-01-06T09:10:04;5.43;;;1.65;;
61709;SDS011;73500;51.494;5.386;2024-01-06T09:12:30;5.40;;;1.48;;
61709;SDS011;73500;51.494;5.386;2024-01-06T09:14:58;4.53;;;1.40;;
61709;SDS011;73500;51.494;5.386;2024-01-06T09:17:23;4.47;;;1.70;;
61709;SDS011;73500;51.494;5.386;2024-01-06T09:19:48;4.68;;;1.38;;
61709;SDS011;73500;51.494;5.386;2024-01-06T09:22:14;5.53;;;1.75;;
61709;SDS011;73500;51.494;5.386;2024-01-06T09:24:40;4.03;;;1.55;;
61709;SDS011;73500;51.494;5.386;2024-01-06T09:27:05;5.53;;;1.48;;
61709;SDS011;73500;51.494;5.386;2024-01-06T09:29:30;3.25;;;1.33;;
61709;SDS011;73500;51.494;5.386;2024-01-06T09:31:56;5.05;;;1.70;;
61709;SDS011;73500;51.494;5.386;2024-01-06T09:34:21;5.85;;;1.65;;
61709;SDS011;73500;51.494;5.386;2024-01-06T09:36:46;5.73;;;1.67;;
61709;SDS011;73500;51.494;5.386;2024-01-06T09:39:12;4.13;;;1.42;;
61709;SDS011;73500;51.494;5.386;2024-01-06T09:41:37;4.50;;;1.50;;
61709;SDS011;73500;51.494;5.386;2024-01-06T09:44:02;3.97;;;1.25;;
61709;SDS011;73500;51.494;5.386;2024-01-06T09:46:28;5.18;;;1.42;;
61709;SDS011;73500;51.494;5.386;2024-01-06T09:48:57;3.30;;;1.23;;
61709;SDS011;73500;51.494;5.386;2024-01-06T09:51:23;4.88;;;1.58;;
61709;SDS011;73500;51.494;5.386;2024-01-06T09:53:52;4.30;;;1.38;;
61709;SDS011;73500;51.494;5.386;2024-01-06T09:56:24;3.63;;;1.40;;
61709;SDS011;73500;51.494;5.386;2024-01-06T09:58:50;4.25;;;1.35;;
61709;SDS011;73500;51.494;5.386;2024-01-06T10:01:17;4.35;;;1.60;;
61709;SDS011;73500;51.494;5.386;2024-01-06T10:03:42;5.35;;;1.35;;
61709;SDS011;73500;51.494;5.386;2024-01-06T10:06:07;3.53;;;1.20;;
61709;SDS011;73500;51.494;5.386;2024-01-06T10:08:34;3.00;;;1.27;;
61709;SDS011;73500;51.494;5.386;2024-01-06T10:11:00;2.60;;;1.10;;
61709;SDS011;73500;51.494;5.386;2024-01-06T10:13:26;4.03;;;1.48;;
61709;SDS011;73500;51.494;5.386;2024-01-06T10:15:53;2.65;;;1.23;;
61709;SDS011;73500;51.494;5.386;2024-01-06T10:18:19;3.58;;;1.50;;
61709;SDS011;73500;51.494;5.386;2024-01-06T10:20:45;3.17;;;1.20;;
61709;SDS011;73500;51.494;5.386;2024-01-06T10:23:10;6.07;;;1.50;;
61709;SDS011;73500;51.494;5.386;2024-01-06T10:25:36;3.85;;;1.40;;
61709;SDS011;73500;51.494;5.386;2024-01-06T10:28:01;4.25;;;1.38;;
61709;SDS011;73500;51.494;5.386;2024-01-06T10:30:28;3.38;;;1.48;;
61709;SDS011;73500;51.494;5.386;2024-01-06T10:32:53;4.15;;;1.10;;
61709;SDS011;73500;51.494;5.386;2024-01-06T10:35:19;2.67;;;1.23;;
61709;SDS011;73500;51.494;5.386;2024-01-06T10:37:45;4.15;;;1.52;;
61709;SDS011;73500;51.494;5.386;2024-01-06T10:40:11;3.75;;;1.10;;
61709;SDS011;73500;51.494;5.386;2024-01-06T10:42:39;4.75;;;1.35;;
61709;SDS011;73500;51.494;5.386;2024-01-06T10:45:09;2.70;;;1.20;;
61709;SDS011;73500;51.494;5.386;2024-01-06T10:47:36;3.33;;;1.20;;
61709;SDS011;73500;51.494;5.386;2024-01-06T10:50:02;2.85;;;1.20;;
61709;SDS011;73500;51.494;5.386;2024-01-06T10:52:28;3.30;;;1.35;;
61709;SDS011;73500;51.494;5.386;2024-01-06T10:54:53;5.53;;;1.10;;
61709;SDS011;73500;51.494;5.386;2024-01-06T10:57:20;2.80;;;1.17;;
61709;SDS011;73500;51.494;5.386;2024-01-06T10:59:47;2.85;;;1.40;;
61709;SDS011;73500;51.494;5.386;2024-01-06T11:02:15;3.78;;;1.40;;
61709;SDS011;73500;51.494;5.386;2024-01-06T11:04:47;3.58;;;1.33;;
61709;SDS011;73500;51.494;5.386;2024-01-06T11:07:13;3.38;;;1.27;;
61709;SDS011;73500;51.494;5.386;2024-01-06T11:09:43;3.13;;;1.25;;
61709;SDS011;73500;51.494;5.386;2024-01-06T11:12:15;3.50;;;1.30;;
61709;SDS011;73500;51.494;5.386;2024-01-06T11:14:41;2.65;;;1.15;;
61709;SDS011;73500;51.494;5.386;2024-01-06T11:17:07;3.50;;;1.33;;
61709;SDS011;73500;51.494;5.386;2024-01-06T11:25:07;4.93;;;2.75;;
61709;SDS011;73500;51.494;5.386;2024-01-06T11:27:37;3.88;;;1.20;;
61709;SDS011;73500;51.494;5.386;2024-01-06T11:30:03;3.05;;;1.20;;
61709;SDS011;73500;51.494;5.386;2024-01-06T11:35:20;3.78;;;1.35;;
61709;SDS011;73500;51.494;5.386;2024-01-06T11:45:11;3.92;;;1.13;;
61709;SDS011;73500;51.494;5.386;2024-01-06T11:47:38;3.22;;;1.20;;
61709;SDS011;73500;51.494;5.386;2024-01-06T11:50:04;3.80;;;1.17;;
61709;SDS011;73500;51.494;5.386;2024-01-06T11:52:33;4.38;;;1.25;;
61709;SDS011;73500;51.494;5.386;2024-01-06T11:54:59;2.63;;;1.20;;
61709;SDS011;73500;51.494;5.386;2024-01-06T11:57:26;6.88;;;1.88;;
61709;SDS011;73500;51.494;5.386;2024-01-06T11:59:52;6.72;;;2.00;;
61709;SDS011;73500;51.494;5.386;2024-01-06T12:02:18;7.30;;;2.28;;
61709;SDS011;73500;51.494;5.386;2024-01-06T12:04:50;6.85;;;2.20;;
61709;SDS011;73500;51.494;5.386;2024-01-06T12:07:17;6.22;;;2.03;;
61709;SDS011;73500;51.494;5.386;2024-01-06T12:09:45;7.43;;;2.00;;
61709;SDS011;73500;51.494;5.386;2024-01-06T12:12:16;5.38;;;2.00;;
61709;SDS011;73500;51.494;5.386;2024-01-06T12:14:43;8.07;;;2.45;;
61709;SDS011;73500;51.494;5.386;2024-01-06T12:17:09;6.88;;;1.80;;
61709;SDS011;73500;51.494;5.386;2024-01-06T12:19:35;5.30;;;1.80;;
61709;SDS011;73500;51.494;5.386;2024-01-06T12:22:01;5.13;;;1.90;;
61709;SDS011;73500;51.494;5.386;2024-01-06T12:24:27;7.05;;;1.98;;
61709;SDS011;73500;51.494;5.386;2024-01-06T12:26:55;4.78;;;1.80;;
61709;SDS011;73500;51.494;5.386;2024-01-06T12:29:21;4.18;;;1.70;;
61709;SDS011;73500;51.494;5.386;2024-01-06T12:31:47;4.88;;;1.90;;
61709;SDS011;73500;51.494;5.386;2024-01-06T12:34:12;6.05;;;1.88;;
61709;SDS011;73500;51.494;5.386;2024-01-06T12:36:37;5.47;;;1.77;;
61709;SDS011;73500;51.494;5.386;2024-01-06T12:39:04;6.80;;;1.85;;
61709;SDS011;73500;51.494;5.386;2024-01-06T12:41:29;3.60;;;1.50;;
61709;SDS011;73500;51.494;5.386;2024-01-06T12:43:56;4.10;;;1.52;;
61709;SDS011;73500;51.494;5.386;2024-01-06T12:46:21;4.97;;;1.70;;
61709;SDS011;73500;51.494;5.386;2024-01-06T12:48:47;4.72;;;1.63;;
61709;SDS011;73500;51.494;5.386;2024-01-06T12:51:12;3.53;;;1.60;;
61709;SDS011;73500;51.494;5.386;2024-01-06T12:53:37;5.35;;;1.65;;
61709;SDS011;73500;51.494;5.386;2024-01-06T12:56:02;3.58;;;1.40;;
61709;SDS011;73500;51.494;5.386;2024-01-06T12:58:28;7.28;;;1.67;;
61709;SDS011;73500;51.494;5.386;2024-01-06T13:00:53;3.78;;;1.33;;
61709;SDS011;73500;51.494;5.386;2024-01-06T13:03:19;4.80;;;1.70;;
61709;SDS011;73500;51.494;5.386;2024-01-06T13:05:45;3.83;;;1.60;;
61709;SDS011;73500;51.494;5.386;2024-01-06T13:08:10;4.22;;;1.48;;
61709;SDS011;73500;51.494;5.386;2024-01-06T13:10:35;4.40;;;1.77;;
61709;SDS011;73500;51.494;5.386;2024-01-06T13:13:01;4.30;;;1.80;;
61709;SDS011;73500;51.494;5.386;2024-01-06T13:15:27;5.28;;;1.50;;
61709;SDS011;73500;51.494;5.386;2024-01-06T13:17:52;3.40;;;1.38;;
61709;SDS011;73500;51.494;5.386;2024-01-06T13:20:18;4.30;;;1.58;;
61709;SDS011;73500;51.494;5.386;2024-01-06T13:22:43;4.68;;;1.50;;
61709;SDS011;73500;51.494;5.386;2024-01-06T13:25:08;3.38;;;1.45;;
61709;SDS011;73500;51.494;5.386;2024-01-06T13:27:34;3.45;;;1.30;;
61709;SDS011;73500;51.494;5.386;2024-01-06T13:30:00;4.35;;;1.38;;
61709;SDS011;73500;51.494;5.386;2024-01-06T13:32:25;5.60;;;1.35;;
61709;SDS011;73500;51.494;5.386;2024-01-06T13:34:52;3.78;;;1.30;;
61709;SDS011;73500;51.494;5.386;2024-01-06T13:37:20;3.15;;;1.25;;
61709;SDS011;73500;51.494;5.386;2024-01-06T13:39:47;3.63;;;1.20;;
61709;SDS011;73500;51.494;5.386;2024-01-06T13:42:13;3.80;;;1.33;;
61709;SDS011;73500;51.494;5.386;2024-01-06T13:44:38;3.75;;;1.42;;
61709;SDS011;73500;51.494;5.386;2024-01-06T13:47:04;2.80;;;1.35;;
61709;SDS011;73500;51.494;5.386;2024-01-06T13:49:29;4.03;;;1.60;;
61709;SDS011;73500;51.494;5.386;2024-01-06T13:51:56;3.55;;;1.33;;
61709;SDS011;73500;51.494;5.386;2024-01-06T13:54:22;3.22;;;1.30;;
61709;SDS011;73500;51.494;5.386;2024-01-06T13:56:48;3.70;;;1.30;;
61709;SDS011;73500;51.494;5.386;2024-01-06T13:59:14;2.90;;;1.30;;
61709;SDS011;73500;51.494;5.386;2024-01-06T14:01:40;4.40;;;1.40;;
61709;SDS011;73500;51.494;5.386;2024-01-06T14:04:06;3.60;;;1.50;;
61709;SDS011;73500;51.494;5.386;2024-01-06T14:06:31;4.72;;;1.65;;
61709;SDS011;73500;51.494;5.386;2024-01-06T14:08:58;2.92;;;1.42;;
61709;SDS011;73500;51.494;5.386;2024-01-06T14:11:25;4.03;;;1.35;;
61709;SDS011;73500;51.494;5.386;2024-01-06T14:13:52;3.63;;;1.60;;
61709;SDS011;73500;51.494;5.386;2024-01-06T14:16:18;4.03;;;1.50;;
61709;SDS011;73500;51.494;5.386;2024-01-06T14:18:44;4.45;;;1.50;;
61709;SDS011;73500;51.494;5.386;2024-01-06T14:21:09;4.25;;;1.50;;
61709;SDS011;73500;51.494;5.386;2024-01-06T14:23:35;3.05;;;1.40;;
61709;SDS011;73500;51.494;5.386;2024-01-06T14:26:01;3.22;;;1.20;;
61709;SDS011;73500;51.494;5.386;2024-01-06T14:28:26;3.55;;;1.65;;
61709;SDS011;73500;51.494;5.386;2024-01-06T14:30:51;5.00;;;1.50;;
61709;SDS011;73500;51.494;5.386;2024-01-06T14:33:17;4.95;;;1.30;;
61709;SDS011;73500;51.494;5.386;2024-01-06T14:35:44;3.60;;;1.30;;
61709;SDS011;73500;51.494;5.386;2024-01-06T14:38:10;3.95;;;1.30;;
61709;SDS011;73500;51.494;5.386;2024-01-06T14:40:36;3.17;;;1.35;;
61709;SDS011;73500;51.494;5.386;2024-01-06T14:43:01;3.35;;;1.30;;
61709;SDS011;73500;51.494;5.386;2024-01-06T14:45:27;3.78;;;1.27;;
61709;SDS011;73500;51.494;5.386;2024-01-06T14:47:52;3.67;;;1.42;;
61709;SDS011;73500;51.494;5.386;2024-01-06T14:50:18;3.65;;;1.30;;
61709;SDS011;73500;51.494;5.386;2024-01-06T14:52:44;3.55;;;1.40;;
61709;SDS011;73500;51.494;5.386;2024-01-06T14:55:09;5.43;;;1.40;;
61709;SDS011;73500;51.494;5.386;2024-01-06T14:57:35;3.83;;;1.48;;